Time;durP1;ratioP1;P1;durP2;ratioP2;P2;SDS_P1;SDS_P2;PMS_P1;PMS_P2;Temp;Humidity;BMP_temperature;BMP_pressure;BME280_temperature;BME280_humidity;BME280_pressure;Samples;Min_cycle;Max_cycle;Signal;HPM_P1;HPM_P2
2023/01/20 00:01:04;;;;;;;24.35;10.60;;;;;;;1.22;100.00;100940.03;5001541;28;20034;-71
2023/01/20 00:03:30;;;;;;;32.70;11.25;;;;;;;0.99;100.00;100939.69;5008818;28;20044;-71
2023/01/20 00:05:55;;;;;;;27.88;10.52;;;;;;;1.13;100.00;100948.13;5022680;28;20041;-71
2023/01/20 00:08:21;;;;;;;30.50;11.43;;;;;;;0.93;100.00;100951.19;5022796;28;20052;-71
2023/01/20 00:10:46;;;;;;;39.75;10.95;;;;;;;0.97;100.00;100960.72;5009735;28;20033;-71
2023/01/20 00:13:12;;;;;;;30.35;11.80;;;;;;;0.97;100.00;100960.72;5022090;28;20136;-71
2023/01/20 00:15:37;;;;;;;32.85;12.45;;;;;;;0.92;100.00;100961.72;5004558;28;20052;-70
2023/01/20 00:18:03;;;;;;;34.78;13.23;;;;;;;0.90;100.00;100968.75;5023311;28;20044;-71
2023/01/20 00:20:28;;;;;;;33.05;12.30;;;;;;;0.85;100.00;100962.75;5024352;28;20403;-71
2023/01/20 00:22:54;;;;;;;37.08;13.45;;;;;;;0.96;100.00;100971.28;5023927;28;20037;-71
2023/01/20 00:25:19;;;;;;;39.53;14.15;;;;;;;1.01;100.00;100975.53;5006807;28;20049;-71
2023/01/20 00:27:45;;;;;;;41.88;16.70;;;;;;;1.06;100.00;100978.06;5012847;28;20129;-71
2023/01/20 00:30:11;;;;;;;59.70;19.75;;;;;;;1.09;100.00;100977.97;5023984;28;20040;-71
2023/01/20 00:32:38;;;;;;;58.35;21.85;;;;;;;0.97;100.00;100980.88;5005726;28;20916;-71
2023/01/20 00:35:05;;;;;;;73.35;24.10;;;;;;;1.20;100.00;100969.84;5018129;28;20040;-71
2023/01/20 00:37:31;;;;;;;94.47;29.42;;;;;;;0.96;100.00;100977.38;4994234;28;20044;-71
2023/01/20 00:39:56;;;;;;;97.68;31.90;;;;;;;1.09;100.00;100972.72;5021970;28;20029;-71
2023/01/20 00:42:21;;;;;;;96.63;32.17;;;;;;;1.19;100.00;100976.00;5013593;28;20181;-71
2023/01/20 00:44:48;;;;;;;99.72;30.45;;;;;;;1.18;100.00;100976.91;5018000;28;20068;-71
2023/01/20 00:47:13;;;;;;;88.30;30.38;;;;;;;1.22;100.00;100982.06;5023018;28;20045;-71
2023/01/20 00:49:38;;;;;;;80.75;29.05;;;;;;;1.07;100.00;100982.41;5022828;28;20068;-71
2023/01/20 00:52:04;;;;;;;94.90;31.92;;;;;;;1.19;100.00;100978.63;5023146;28;20060;-71
2023/01/20 00:54:29;;;;;;;80.57;29.63;;;;;;;1.28;100.00;100979.28;5023318;28;20048;-71
2023/01/20 00:56:55;;;;;;;83.00;30.83;;;;;;;1.21;100.00;100988.22;5022779;28;20037;-71
2023/01/20 00:59:20;;;;;;;89.57;29.00;;;;;;;1.09;100.00;100995.47;4987302;28;20037;-71
2023/01/20 01:01:46;;;;;;;86.10;28.73;;;;;;;1.28;100.00;100989.78;5022025;28;20041;-72
2023/01/20 01:04:11;;;;;;;91.47;30.15;;;;;;;1.25;100.00;100996.88;5018144;28;20076;-71
2023/01/20 01:06:38;;;;;;;90.28;30.27;;;;;;;1.28;100.00;101004.69;5022225;28;20048;-71
2023/01/20 01:09:04;;;;;;;84.53;30.20;;;;;;;1.35;100.00;101005.41;5014407;28;20540;-71
2023/01/20 01:11:30;;;;;;;85.18;30.30;;;;;;;1.42;100.00;101002.63;5021666;28;20041;-71
2023/01/20 01:13:56;;;;;;;94.43;31.60;;;;;;;1.42;100.00;101002.63;5017059;28;20099;-72
2023/01/20 01:16:21;;;;;;;96.82;33.47;;;;;;;1.23;100.00;101012.66;5023021;28;20068;-71
2023/01/20 01:18:47;;;;;;;96.97;32.53;;;;;;;1.27;100.00;101013.47;5022670;28;20071;-71
2023/01/20 01:21:14;;;;;;;100.78;33.20;;;;;;;1.23;100.00;101012.66;5022907;28;20048;-71
2023/01/20 01:23:40;;;;;;;97.68;33.78;;;;;;;1.20;100.00;101015.34;5017713;28;20037;-71
2023/01/20 01:26:05;;;;;;;90.10;31.30;;;;;;;1.18;100.00;101025.03;5023543;28;20029;-71
2023/01/20 01:28:31;;;;;;;85.93;31.20;;;;;;;1.17;100.00;101028.56;5023421;28;20148;-71
2023/01/20 01:31:01;;;;;;;94.00;31.95;;;;;;;1.25;100.00;101020.50;4985988;28;20034;-71
2023/01/20 01:33:28;;;;;;;84.15;30.15;;;;;;;1.23;100.00;101024.94;5009132;28;20835;-71
2023/01/20 01:35:57;;;;;;;86.00;30.27;;;;;;;1.31;100.00;101033.53;5023668;28;20159;-71
2023/01/20 01:38:23;;;;;;;89.55;30.48;;;;;;;1.51;100.00;101038.31;5000837;28;20145;-71
2023/01/20 01:40:50;;;;;;;91.88;29.17;;;;;;;1.40;100.00;101035.06;5004920;28;20543;-71
2023/01/20 01:43:27;;;;;;;82.25;30.70;;;;;;;1.31;100.00;101040.53;5019192;28;20037;-72
2023/01/20 01:45:53;;;;;;;92.95;31.50;;;;;;;1.25;100.00;101042.38;5019968;28;20622;-71
2023/01/20 01:48:31;;;;;;;95.00;33.10;;;;;;;1.36;100.00;101049.19;5019330;28;20038;-71
2023/01/20 01:51:20;;;;;;;104.00;31.83;;;;;;;1.50;100.00;101052.34;5016474;28;20052;-72
2023/01/20 01:53:52;;;;;;;83.93;29.00;;;;;;;1.17;100.00;101046.94;5022947;28;20661;-72
2023/01/20 01:56:24;;;;;;;81.97;27.90;;;;;;;1.18;100.00;101059.19;5022943;28;20347;-71
2023/01/20 01:58:57;;;;;;;80.85;28.63;;;;;;;1.29;100.00;101058.94;5020439;28;20037;-72
2023/01/20 02:01:24;;;;;;;77.63;27.52;;;;;;;1.21;100.00;101061.75;5022903;28;20612;-72
2023/01/20 02:04:01;;;;;;;81.78;29.88;;;;;;;1.44;100.00;101057.75;5011336;28;20064;-71
2023/01/20 02:06:30;;;;;;;77.55;27.38;;;;;;;1.41;100.00;101060.47;5023066;28;20107;-71
2023/01/20 02:08:56;;;;;;;79.78;27.05;;;;;;;1.44;100.00;101066.47;5012440;28;20037;-72
2023/01/20 02:11:22;;;;;;;86.25;29.58;;;;;;;1.41;100.00;101063.09;5022229;28;20052;-72
2023/01/20 02:13:48;;;;;;;74.05;28.13;;;;;;;1.49;100.00;101064.63;5017021;28;20060;-72
2023/01/20 02:16:33;;;;;;;77.43;28.75;;;;;;;1.37;100.00;101067.53;5022080;28;20073;-71
2023/01/20 02:19:33;;;;;;;84.13;28.63;;;;;;;1.49;100.00;101066.38;5020940;28;20128;-71
2023/01/20 02:22:04;;;;;;;91.68;29.83;;;;;;;1.50;100.00;101066.34;5011533;28;20117;-72
2023/01/20 02:24:42;;;;;;;83.53;28.88;;;;;;;1.42;100.00;101062.19;5002315;28;20121;-72
2023/01/20 02:27:12;;;;;;;81.22;27.63;;;;;;;1.24;100.00;101072.16;4996558;28;20041;-72
2023/01/20 02:29:43;;;;;;;80.20;26.92;;;;;;;1.31;100.00;101072.06;5021342;28;20046;-71
2023/01/20 02:32:19;;;;;;;60.25;23.88;;;;;;;1.35;100.00;101064.06;5021407;28;20045;-72
2023/01/20 02:35:02;;;;;;;66.22;24.88;;;;;;;1.37;100.00;101070.16;5021067;28;20337;-72
2023/01/20 02:37:31;;;;;;;65.75;23.67;;;;;;;1.49;100.00;101069.00;5016222;28;20041;-72
2023/01/20 02:40:09;;;;;;;73.82;26.42;;;;;;;1.53;100.00;101068.06;5021767;28;20136;-71
2023/01/20 02:43:09;;;;;;;65.00;26.27;;;;;;;1.46;100.00;101071.72;5021634;28;20053;-72
2023/01/20 02:45:50;;;;;;;72.85;25.55;;;;;;;1.38;100.00;101069.25;5012222;28;20100;-72
2023/01/20 02:49:04;;;;;;;70.53;25.27;;;;;;;1.57;100.00;101071.47;5021449;28;20215;-71
2023/01/20 02:51:39;;;;;;;65.88;24.80;;;;;;;1.49;100.00;101079.53;4961713;28;20049;-71
2023/01/20 02:54:09;;;;;;;72.40;25.95;;;;;;;1.46;100.00;101075.22;5021244;28;20150;-72
2023/01/20 02:56:35;;;;;;;68.50;24.80;;;;;;;1.41;100.00;101078.84;5021106;28;20045;-71
2023/01/20 02:59:19;;;;;;;67.18;24.35;;;;;;;1.49;100.00;101076.91;5021183;28;20909;-71
2023/01/20 03:01:56;;;;;;;64.55;24.17;;;;;;;1.37;100.00;101079.81;5007314;28;20061;-72
2023/01/20 03:04:31;;;;;;;70.35;24.60;;;;;;;1.38;100.00;101081.53;5021426;28;20063;-71
2023/01/20 03:06:58;;;;;;;69.63;24.33;;;;;;;1.50;100.00;101079.47;5021171;28;20107;-72
2023/01/20 03:09:32;;;;;;;60.35;22.65;;;;;;;1.42;100.00;101081.44;5018422;28;20103;-72
2023/01/20 03:12:03;;;;;;;55.50;22.73;;;;;;;1.28;100.00;101079.09;5021462;28;20129;-72
2023/01/20 03:14:29;;;;;;;57.83;22.08;;;;;;;1.33;100.00;101081.63;5007270;28;20064;-71
2023/01/20 03:16:54;;;;;;;53.83;22.00;;;;;;;1.28;100.00;101081.72;5020592;28;20073;-71
2023/01/20 03:19:20;;;;;;;55.83;21.35;;;;;;;1.27;100.00;101087.03;5009548;28;20503;-72
2023/01/20 03:21:45;;;;;;;62.58;23.08;;;;;;;1.33;100.00;101094.75;5021088;28;20114;-72
2023/01/20 03:24:11;;;;;;;51.60;19.63;;;;;;;1.39;100.00;101085.88;5021170;28;20060;-71
2023/01/20 03:26:37;;;;;;;50.65;18.90;;;;;;;1.31;100.00;101083.44;5021457;28;20045;-72
2023/01/20 03:29:10;;;;;;;55.85;20.83;;;;;;;1.32;100.00;101087.78;5013381;28;20045;-71
2023/01/20 03:31:39;;;;;;;62.17;21.80;;;;;;;1.40;100.00;101085.84;5024282;28;20036;-72
2023/01/20 03:34:09;;;;;;;63.13;21.42;;;;;;;1.45;100.00;101091.84;5025242;28;20518;-71
2023/01/20 03:36:36;;;;;;;51.00;20.45;;;;;;;1.56;100.00;101094.28;5025639;28;20064;-71
2023/01/20 03:39:03;;;;;;;55.65;20.65;;;;;;;1.34;100.00;101095.63;5023069;28;20562;-72
2023/01/20 03:41:59;;;;;;;67.55;23.77;;;;;;;1.41;100.00;101089.34;5025623;28;20341;-72
2023/01/20 03:44:50;;;;;;;70.93;23.05;;;;;;;1.41;100.00;101092.84;5025265;28;20048;-71
2023/01/20 03:47:43;;;;;;;58.92;23.00;;;;;;;1.32;100.00;101095.66;5006190;28;20570;-72
2023/01/20 03:50:52;;;;;;;58.75;23.77;;;;;;;1.33;100.00;101099.16;4988344;28;21075;-72
2023/01/20 03:53:36;;;;;;;57.55;23.15;;;;;;;1.40;100.00;101098.09;5005932;28;20483;-72
2023/01/20 03:56:09;;;;;;;60.97;24.85;;;;;;;1.59;100.00;101093.31;5021054;28;20052;-71
2023/01/20 03:58:39;;;;;;;66.60;23.85;;;;;;;1.46;100.00;101087.50;5025454;28;20073;-72
2023/01/20 04:01:07;;;;;;;67.82;23.63;;;;;;;1.56;100.00;101096.91;5023343;28;20088;-72
2023/01/20 04:03:38;;;;;;;63.85;24.20;;;;;;;1.61;100.00;101100.28;5024980;28;20051;-71
2023/01/20 04:06:08;;;;;;;73.85;25.83;;;;;;;1.45;100.00;101101.50;5024794;28;20088;-72
2023/01/20 04:08:38;;;;;;;70.60;26.80;;;;;;;1.39;100.00;101106.91;5018964;28;20048;-72
2023/01/20 04:11:05;;;;;;;63.72;23.83;;;;;;;1.24;100.00;101102.81;5017924;28;20487;-71
2023/01/20 04:13:31;;;;;;;90.47;25.83;;;;;;;1.21;100.00;101101.16;5024277;28;20569;-71
2023/01/20 04:15:58;;;;;;;75.22;25.17;;;;;;;1.36;100.00;101101.72;5024332;28;20055;-71
2023/01/20 04:18:24;;;;;;;81.72;27.02;;;;;;;1.36;100.00;101104.34;5021311;28;20045;-72
2023/01/20 04:20:56;;;;;;;76.97;26.48;;;;;;;1.47;100.00;101111.09;5024053;28;20037;-72
2023/01/20 04:23:40;;;;;;;;;;;;;;;1.16;100.00;101105.63;5021969;28;20034;-71
2023/01/20 04:26:05;;;;;;;76.95;26.45;;;;;;;1.34;100.00;101111.38;5018109;28;20004;-71
2023/01/20 04:28:31;;;;;;;83.18;27.67;;;;;;;1.28;100.00;101109.75;5019653;28;20112;-71
2023/01/20 04:30:56;;;;;;;93.03;30.58;;;;;;;1.45;100.00;101112.88;5023665;28;20041;-72
2023/01/20 04:33:22;;;;;;;98.07;33.20;;;;;;;1.32;100.00;101118.44;5023825;28;20045;-71
2023/01/20 04:35:47;;;;;;;92.70;30.42;;;;;;;1.31;100.00;101127.22;5023597;28;20042;-72
2023/01/20 04:38:12;;;;;;;94.93;33.53;;;;;;;1.32;100.00;101137.69;5022496;28;20095;-73
2023/01/20 04:40:38;;;;;;;100.07;33.05;;;;;;;1.27;100.00;101135.16;5022809;28;20124;-73
2023/01/20 04:43:03;;;;;;;103.65;35.28;;;;;;;1.18;100.00;101132.72;5024065;28;20257;-71
2023/01/20 04:45:29;;;;;;;102.80;33.22;;;;;;;1.28;100.00;101134.25;5019046;28;20048;-72
2023/01/20 04:47:54;;;;;;;103.70;34.08;;;;;;;1.16;100.00;101147.66;5024033;28;20057;-72
2023/01/20 04:50:20;;;;;;;116.28;34.85;;;;;;;1.34;100.00;101132.41;5022608;28;20081;-72
2023/01/20 04:52:45;;;;;;;102.82;33.50;;;;;;;1.07;100.00;101139.09;5024295;28;20045;-71
2023/01/20 04:55:11;;;;;;;116.43;33.58;;;;;;;1.02;100.00;101139.16;5012654;28;20041;-71
2023/01/20 04:57:36;;;;;;;115.75;33.42;;;;;;;1.24;100.00;101136.97;5028481;28;20045;-72
2023/01/20 05:00:05;;;;;;;105.03;32.08;;;;;;;1.29;100.00;101135.97;5032400;28;20044;-70
2023/01/20 05:02:30;;;;;;;109.65;31.27;;;;;;;1.23;100.00;101133.47;5031319;28;20026;-72
2023/01/20 05:04:56;;;;;;;103.40;31.75;;;;;;;1.28;100.00;101138.66;5027119;28;20403;-72
2023/01/20 05:07:21;;;;;;;109.72;34.03;;;;;;;1.27;100.00;101140.41;5021037;28;20116;-71
2023/01/20 05:09:47;;;;;;;98.47;31.63;;;;;;;1.21;100.00;101144.94;5022859;28;20060;-71
2023/01/20 05:12:12;;;;;;;103.63;31.20;;;;;;;1.35;100.00;101142.00;5022746;28;20120;-72
2023/01/20 05:14:37;;;;;;;93.95;30.83;;;;;;;1.34;100.00;101146.41;5019795;28;20052;-71
2023/01/20 05:17:03;;;;;;;98.20;30.95;;;;;;;1.29;100.00;101140.38;4992495;28;20662;-71
2023/01/20 05:19:28;;;;;;;94.40;30.80;;;;;;;1.20;100.00;101144.03;5019283;28;20038;-70
2023/01/20 05:21:53;;;;;;;97.90;29.77;;;;;;;1.37;100.00;101140.22;5012267;28;20065;-70
2023/01/20 05:24:19;;;;;;;92.07;28.55;;;;;;;1.29;100.00;101140.38;5016023;28;20041;-71
2023/01/20 05:26:44;;;;;;;83.05;29.70;;;;;;;1.29;100.00;101138.59;5021350;28;20041;-71
2023/01/20 05:29:10;;;;;;;97.13;29.10;;;;;;;1.26;100.00;101137.81;5017613;28;20092;-71
2023/01/20 05:31:37;;;;;;;88.07;28.08;;;;;;;1.19;100.00;101144.94;5019750;28;20554;-70
2023/01/20 05:34:03;;;;;;;83.32;29.05;;;;;;;1.21;100.00;101152.81;5020138;28;20041;-70
2023/01/20 05:36:29;;;;;;;97.88;31.70;;;;;;;1.28;100.00;101150.00;5021214;28;20111;-71
2023/01/20 05:38:54;;;;;;;87.75;29.67;;;;;;;1.36;100.00;101149.00;5020287;28;20049;-71
2023/01/20 05:41:20;;;;;;;99.20;30.50;;;;;;;1.37;100.00;101151.59;5021465;28;20140;-71
2023/01/20 05:43:45;;;;;;;90.20;30.42;;;;;;;1.45;100.00;101154.06;5012040;28;20528;-70
2023/01/20 05:46:10;;;;;;;103.68;31.58;;;;;;;1.38;100.00;101152.47;5020438;28;20655;-70
2023/01/20 05:48:36;;;;;;;94.40;31.13;;;;;;;1.31;100.00;101150.88;5015760;28;20120;-71
2023/01/20 05:51:01;;;;;;;81.38;27.17;;;;;;;1.12;100.00;101156.47;5016222;28;20525;-70
2023/01/20 05:53:27;;;;;;;93.50;28.88;;;;;;;1.11;100.00;101156.53;5014389;28;20471;-71
2023/01/20 05:56:00;;;;;;;86.30;28.38;;;;;;;1.17;100.00;101159.00;5010368;28;20033;-70
2023/01/20 05:58:27;;;;;;;90.60;27.42;;;;;;;1.21;100.00;101152.81;5017941;28;20533;-71
2023/01/20 06:00:52;;;;;;;82.88;28.00;;;;;;;1.11;100.00;101160.00;5018887;28;20131;-70
2023/01/20 06:03:17;;;;;;;82.18;27.42;;;;;;;1.08;100.00;101159.19;5019865;28;20585;-70
2023/01/20 06:05:43;;;;;;;84.38;27.60;;;;;;;1.16;100.00;101171.28;5019137;28;20042;-71
2023/01/20 06:08:08;;;;;;;81.20;27.92;;;;;;;1.20;100.00;101162.44;5021024;28;20061;-70
2023/01/20 06:10:34;;;;;;;85.68;27.70;;;;;;;1.22;100.00;101165.91;5022258;28;20041;-73
2023/01/20 06:12:59;;;;;;;79.18;25.60;;;;;;;1.18;100.00;101163.38;5019448;28;20049;-73
2023/01/20 06:15:25;;;;;;;83.05;24.23;;;;;;;1.03;100.00;101173.25;5022174;28;20072;-72
2023/01/20 06:17:51;;;;;;;77.43;25.05;;;;;;;1.01;100.00;101172.44;5024486;28;20389;-73
2023/01/20 06:20:17;;;;;;;82.30;25.98;;;;;;;1.25;100.00;101165.81;5017350;28;20033;-72
2023/01/20 06:22:43;;;;;;;69.28;22.80;;;;;;;1.12;100.00;101171.38;5022116;28;20033;-73
2023/01/20 06:25:08;;;;;;;89.88;27.55;;;;;;;1.07;100.00;101175.84;5026114;28;20495;-72
2023/01/20 06:27:36;;;;;;;69.18;25.05;;;;;;;1.35;100.00;101160.38;5008112;28;20046;-72
2023/01/20 06:30:06;;;;;;;73.40;24.90;;;;;;;1.23;100.00;101170.25;5008951;28;20739;-73
2023/01/20 06:32:31;;;;;;;74.57;25.33;;;;;;;1.20;100.00;101172.06;5015403;28;20033;-72
2023/01/20 06:34:57;;;;;;;70.57;23.65;;;;;;;1.12;100.00;101172.22;5015298;28;20475;-72
2023/01/20 06:37:22;;;;;;;82.53;26.23;;;;;;;1.15;100.00;101166.91;5017923;28;20056;-71
2023/01/20 06:39:48;;;;;;;80.22;25.08;;;;;;;1.06;100.00;101179.38;5022235;28;20175;-72
2023/01/20 06:42:13;;;;;;;80.80;25.75;;;;;;;1.32;100.00;101170.97;5018423;28;20479;-72
2023/01/20 06:44:38;;;;;;;84.55;25.77;;;;;;;1.23;100.00;101174.66;5019554;28;20248;-72
2023/01/20 06:47:04;;;;;;;80.78;24.75;;;;;;;1.27;100.00;101185.06;5021768;28;20136;-71
2023/01/20 06:49:32;;;;;;;64.30;23.42;;;;;;;1.24;100.00;101184.25;5021582;28;20085;-72
2023/01/20 06:51:57;;;;;;;59.90;21.92;;;;;;;1.36;100.00;101188.41;5018620;28;20053;-72
2023/01/20 06:54:23;;;;;;;75.45;25.33;;;;;;;1.19;100.00;101197.47;4998056;28;20128;-72
2023/01/20 06:56:48;;;;;;;81.38;26.10;;;;;;;1.12;100.00;101201.13;5021145;28;20043;-71
2023/01/20 06:59:16;;;;;;;68.20;23.60;;;;;;;1.20;100.00;101208.84;5020959;28;20034;-72
2023/01/20 07:01:42;;;;;;;68.32;24.80;;;;;;;1.20;100.00;101212.31;5020997;28;20560;-72
2023/01/20 07:04:11;;;;;;;68.90;22.33;;;;;;;1.16;100.00;101212.44;5021291;28;20053;-72
2023/01/20 07:06:38;;;;;;;70.15;22.23;;;;;;;1.16;100.00;101218.56;5023729;28;20053;-71
2023/01/20 07:09:06;;;;;;;68.20;22.40;;;;;;;1.24;100.00;101221.03;5025170;28;20067;-72
2023/01/20 07:11:33;;;;;;;71.88;22.98;;;;;;;1.04;100.00;101221.38;5005813;28;20045;-71
2023/01/20 07:13:59;;;;;;;73.93;23.17;;;;;;;1.20;100.00;101219.34;5025118;28;20088;-72
2023/01/20 07:16:25;;;;;;;64.85;23.98;;;;;;;1.04;100.00;101224.88;5004971;28;20049;-72
2023/01/20 07:18:52;;;;;;;73.45;22.45;;;;;;;1.00;100.00;101230.22;5013691;28;20037;-72
2023/01/20 07:21:24;;;;;;;73.00;24.45;;;;;;;0.90;100.00;101231.25;5024154;28;20044;-72
2023/01/20 07:23:50;;;;;;;72.13;24.05;;;;;;;1.22;100.00;101228.94;5011601;28;20033;-72
2023/01/20 07:26:18;;;;;;;64.90;22.60;;;;;;;1.19;100.00;101230.75;5025100;28;20038;-73
2023/01/20 07:28:44;;;;;;;69.22;23.95;;;;;;;1.10;100.00;101237.03;5014976;28;20045;-72
2023/01/20 07:31:13;;;;;;;71.72;23.02;;;;;;;1.04;100.00;101237.16;5025219;28;20067;-71
2023/01/20 07:33:39;;;;;;;69.65;22.38;;;;;;;1.27;100.00;101231.50;5006772;28;20069;-73
2023/01/20 07:36:05;;;;;;;72.78;25.60;;;;;;;1.17;100.00;101237.81;4999705;28;20136;-72
2023/01/20 07:38:31;;;;;;;72.65;24.65;;;;;;;1.09;100.00;101235.31;5004005;28;20120;-72
2023/01/20 07:41:01;;;;;;;78.65;24.77;;;;;;;1.17;100.00;101251.78;5022471;28;20041;-72
2023/01/20 07:43:27;;;;;;;79.22;26.58;;;;;;;1.16;100.00;101244.81;5021586;28;20133;-72
2023/01/20 07:46:00;;;;;;;82.35;26.25;;;;;;;1.24;100.00;101250.78;5024792;28;20836;-72
2023/01/20 07:48:27;;;;;;;78.50;26.92;;;;;;;1.24;100.00;101250.78;5006781;28;20543;-71
2023/01/20 07:51:00;;;;;;;85.10;27.23;;;;;;;1.29;100.00;101259.44;5016387;28;20081;-72
2023/01/20 07:53:47;;;;;;;77.55;27.02;;;;;;;1.17;100.00;101256.19;5025058;28;20041;-72
2023/01/20 07:56:15;;;;;;;86.07;25.38;;;;;;;1.26;100.00;101256.03;5024309;28;20053;-71
2023/01/20 07:58:43;;;;;;;79.40;26.45;;;;;;;1.24;100.00;101263.06;5026044;28;20060;-72
2023/01/20 08:01:16;;;;;;;85.65;27.50;;;;;;;1.32;100.00;101262.94;4993641;28;20831;-73
2023/01/20 08:03:42;;;;;;;;;;;;;;;1.44;100.00;101265.31;5025546;28;20029;-72
2023/01/20 08:06:10;;;;;;;85.03;27.83;;;;;;;1.51;100.00;101264.31;5018059;28;20652;-72
2023/01/20 08:08:35;;;;;;;95.03;28.73;;;;;;;1.60;100.00;101266.75;5024580;28;20099;-72
2023/01/20 08:11:01;;;;;;;87.90;27.55;;;;;;;1.61;100.00;101263.25;5002453;28;20053;-72
2023/01/20 08:13:28;;;;;;;92.90;27.55;;;;;;;1.63;100.00;101266.69;5022802;28;20067;-72
2023/01/20 08:15:53;;;;;;;81.43;28.10;;;;;;;1.65;100.00;101269.28;5002492;28;20083;-72
2023/01/20 08:18:18;;;;;;;90.35;28.95;;;;;;;1.74;100.00;101274.34;5018402;28;20033;-72
2023/01/20 08:20:44;;;;;;;81.43;26.98;;;;;;;1.61;100.00;101276.38;5020981;28;20042;-72
2023/01/20 08:23:10;;;;;;;83.80;26.80;;;;;;;1.66;100.00;101277.16;5032868;28;20045;-73
2023/01/20 08:25:35;;;;;;;88.95;28.95;;;;;;;1.80;100.00;101274.22;5017372;28;20029;-72
2023/01/20 08:28:01;;;;;;;78.22;26.45;;;;;;;1.76;100.00;101273.44;5010409;28;20034;-71
2023/01/20 08:30:26;;;;;;;86.63;28.33;;;;;;;1.90;100.00;101265.25;5020854;28;20029;-72
2023/01/20 08:32:52;;;;;;;85.63;28.88;;;;;;;1.90;100.00;101272.28;5024047;28;20761;-72
2023/01/20 08:35:17;;;;;;;81.15;28.83;;;;;;;1.87;100.00;101278.47;5007276;28;20505;-72
2023/01/20 08:37:42;;;;;;;84.53;27.10;;;;;;;2.08;100.00;101269.28;5025130;28;20068;-72
2023/01/20 08:40:09;;;;;;;86.60;27.35;;;;;;;2.20;100.00;101268.13;5023394;28;20588;-72
2023/01/20 08:42:36;;;;;;;76.32;25.05;;;;;;;1.98;100.00;101275.63;5023943;28;20042;-72
2023/01/20 08:45:02;;;;;;;75.20;25.48;;;;;;;1.87;100.00;101280.25;5022206;28;20045;-72
2023/01/20 08:47:28;;;;;;;89.40;26.45;;;;;;;1.88;100.00;101276.72;5003322;28;20033;-72
2023/01/20 08:49:53;;;;;;;84.03;28.75;;;;;;;2.02;100.00;101285.19;5022143;28;20802;-72
2023/01/20 08:52:19;;;;;;;83.22;27.67;;;;;;;1.89;100.00;101281.94;5022355;28;20066;-72
2023/01/20 08:54:44;;;;;;;78.00;24.95;;;;;;;1.82;100.00;101277.72;5015812;28;20128;-72
2023/01/20 08:57:10;;;;;;;93.50;29.73;;;;;;;2.10;100.00;101283.25;5016343;28;20068;-73
2023/01/20 08:59:35;;;;;;;78.93;26.98;;;;;;;2.18;100.00;101285.72;5017745;28;20120;-72
2023/01/20 09:02:01;;;;;;;74.45;25.15;;;;;;;2.07;100.00;101281.56;5015450;28;20041;-72
2023/01/20 09:04:26;;;;;;;83.95;25.88;;;;;;;2.12;100.00;101280.59;5015799;28;20799;-72
2023/01/20 09:06:52;;;;;;;77.18;24.13;;;;;;;2.12;100.00;101286.72;5014814;28;20164;-73
2023/01/20 09:09:20;;;;;;;72.30;23.92;;;;;;;2.18;100.00;101285.72;5015224;28;20068;-72
2023/01/20 09:11:49;;;;;;;78.15;25.92;;;;;;;2.06;100.00;101297.38;5014916;28;20029;-72
2023/01/20 09:14:16;;;;;;;70.70;25.60;;;;;;;2.41;100.00;101298.34;5014015;28;20441;-72
2023/01/20 09:16:42;;;;;;;83.22;26.95;;;;;;;2.47;100.00;101306.13;5015115;28;20037;-72
2023/01/20 09:19:07;;;;;;;72.93;26.48;;;;;;;2.33;100.00;101304.66;5014693;28;20148;-72
2023/01/20 09:21:32;;;;;;;75.97;24.98;;;;;;;2.33;100.00;101307.31;5015116;28;20045;-72
2023/01/20 09:23:58;;;;;;;73.18;25.20;;;;;;;2.31;100.00;101305.63;5014806;28;20049;-72
2023/01/20 09:26:24;;;;;;;74.05;24.95;;;;;;;2.51;100.00;101306.03;5014102;28;20037;-72
2023/01/20 09:28:49;;;;;;;75.55;24.63;;;;;;;2.43;100.00;101301.84;5015211;28;20485;-72
2023/01/20 09:31:15;;;;;;;80.40;25.77;;;;;;;2.32;100.00;101309.97;5014782;28;20041;-72
2023/01/20 09:33:42;;;;;;;75.78;25.77;;;;;;;2.39;100.00;101314.19;5014742;28;20045;-72
2023/01/20 09:36:09;;;;;;;84.47;24.95;;;;;;;2.36;100.00;101306.38;4997361;28;20045;-72
2023/01/20 09:44:47;;;;;;;71.10;24.38;;;;;;;2.28;100.00;101310.94;5014056;28;20084;-72
2023/01/20 09:47:28;;;;;;;71.90;24.65;;;;;;;2.65;100.00;101323.25;4994145;28;20053;-72
2023/01/20 09:53:41;;;;;;;71.40;24.95;;;;;;;2.66;100.00;101319.72;5010693;28;20044;-72
2023/01/20 09:56:15;;;;;;;70.63;26.20;;;;;;;2.58;100.00;101320.78;5000629;28;20111;-72
2023/01/20 09:59:00;;;;;;;76.32;27.30;;;;;;;2.61;100.00;101325.13;4992903;28;20060;-72
2023/01/20 10:01:38;;;;;;;77.53;26.27;;;;;;;2.53;100.00;101324.41;5011463;28;20041;-72
2023/01/20 10:04:36;;;;;;;76.53;26.83;;;;;;;2.51;100.00;101324.47;5011846;28;20041;-72
2023/01/20 10:07:10;;;;;;;76.80;25.92;;;;;;;2.61;100.00;101333.03;5013735;28;20044;-72
2023/01/20 10:09:41;;;;;;;88.45;24.95;;;;;;;2.49;100.00;101331.50;4994422;28;20140;-73
2023/01/20 10:12:13;;;;;;;71.07;26.33;;;;;;;2.55;100.00;101336.63;5013075;28;20108;-71
2023/01/20 10:14:58;;;;;;;77.57;26.60;;;;;;;2.60;100.00;101347.06;5013860;28;20053;-72
2023/01/20 10:17:32;;;;;;;75.82;26.20;;;;;;;2.62;100.00;101336.53;5013985;28;20726;-72
2023/01/20 10:20:04;;;;;;;72.78;26.02;;;;;;;2.70;100.00;101335.41;5013505;28;20449;-72
2023/01/20 10:22:49;;;;;;;67.30;25.13;;;;;;;2.76;100.00;101342.31;4996224;28;20069;-72
2023/01/20 10:25:27;;;;;;;72.25;26.05;;;;;;;2.96;100.00;101339.22;5012723;28;20495;-73
2023/01/20 10:27:55;;;;;;;74.78;26.20;;;;;;;2.94;100.00;101344.53;5013405;28;20074;-72
2023/01/20 10:30:24;;;;;;;62.22;22.65;;;;;;;2.78;100.00;101345.78;5013297;28;20449;-72
2023/01/20 10:33:30;;;;;;;78.93;26.83;;;;;;;2.85;100.00;101347.38;5012485;28;20052;-72
2023/01/20 10:35:59;;;;;;;72.65;26.83;;;;;;;2.96;100.00;101348.00;5013120;28;20041;-72
2023/01/20 10:38:39;;;;;;;60.58;25.75;;;;;;;2.91;100.00;101349.84;5012625;28;20084;-71
2023/01/20 10:41:15;;;;;;;59.30;22.40;;;;;;;2.85;100.00;101350.88;5014554;28;21248;-72
2023/01/20 10:43:41;;;;;;;70.70;24.15;;;;;;;2.96;100.00;101348.00;4996410;28;20038;-72
2023/01/20 10:46:30;;;;;;;63.05;23.65;;;;;;;3.11;100.00;101341.47;5014401;28;20570;-72
2023/01/20 10:49:13;;;;;;;64.35;25.42;;;;;;;3.00;100.00;101341.72;5013841;28;20120;-72
2023/01/20 10:51:47;;;;;;;;;;;;;;;3.00;100.00;101341.72;4996180;28;20052;-72
2023/01/20 10:54:47;;;;;;;70.10;25.58;;;;;;;2.82;100.00;101339.56;5013863;28;19928;-72
2023/01/20 10:57:14;;;;;;;66.25;22.75;;;;;;;2.95;100.00;101340.13;5013140;28;20133;-72
2023/01/20 10:59:40;;;;;;;68.47;22.88;;;;;;;2.87;100.00;101350.84;5015263;28;20049;-72
2023/01/20 11:02:16;;;;;;;57.47;22.67;;;;;;;3.02;100.00;101350.47;5012471;28;20048;-72
2023/01/20 11:04:43;;;;;;;63.20;21.23;;;;;;;3.10;100.00;101345.88;5014293;28;20135;-72
2023/01/20 11:07:15;;;;;;;62.97;23.35;;;;;;;3.21;100.00;101350.00;5013473;28;20041;-72
2023/01/20 11:09:41;;;;;;;;;;;;;;;3.35;100.00;101345.28;5014006;28;20041;-72
2023/01/20 11:12:29;;;;;;;58.22;22.02;;;;;;;3.53;100.00;101342.16;5011889;28;19921;-72
2023/01/20 11:14:59;;;;;;;58.70;21.10;;;;;;;3.45;100.00;101353.81;5012444;28;20061;-71
2023/01/20 11:17:24;;;;;;;53.92;22.67;;;;;;;3.58;100.00;101344.69;4994692;28;20065;-71
2023/01/20 11:19:56;;;;;;;63.05;23.80;;;;;;;3.78;100.00;101352.06;5013115;28;20049;-72
2023/01/20 11:22:30;;;;;;;61.35;22.25;;;;;;;3.72;100.00;101360.16;5011867;28;20141;-71
2023/01/20 11:24:58;;;;;;;58.45;22.67;;;;;;;3.59;100.00;101362.22;5014662;28;20037;-71
2023/01/20 11:27:46;;;;;;;54.33;21.83;;;;;;;3.61;100.00;101361.31;5012047;28;20048;-72
2023/01/20 11:30:30;;;;;;;56.10;21.25;;;;;;;3.57;100.00;101366.69;4994558;28;20057;-72